Time;durP1;ratioP1;P1;durP2;ratioP2;P2;SDS_P1;SDS_P2;PMS_P1;PMS_P2;Temp;Humidity;BMP_temperature;BMP_pressure;BME280_temperature;BME280_humidity;BME280_pressure;Samples;Min_cycle;Max_cycle;Signal;HPM_P1;HPM_P2
2022/05/08 00:00:00;;;;;;;62.05;49.40;;;12.40;99.90;;;;;;5016301;28;20041;-57
2022/05/08 00:02:26;;;;;;;63.33;46.42;;;12.40;99.90;;;;;;5013955;28;20554;-55
2022/05/08 00:04:53;;;;;;;63.22;48.83;;;12.40;99.90;;;;;;5032109;28;20018;-57
2022/05/08 00:07:19;;;;;;;65.80;48.95;;;12.30;99.90;;;;;;5016047;28;20034;-58
2022/05/08 00:09:46;;;;;;;69.22;48.15;;;12.30;99.90;;;;;;5012340;28;20040;-58
2022/05/08 00:12:13;;;;;;;64.25;47.47;;;12.30;99.90;;;;;;5012304;28;20385;-57
2022/05/08 00:14:42;;;;;;;73.50;47.53;;;12.30;99.90;;;;;;5011864;28;20041;-56
2022/05/08 00:17:14;;;;;;;57.38;45.40;;;12.30;99.90;;;;;;5012308;28;20073;-55
2022/05/08 00:19:47;;;;;;;61.10;47.08;;;12.30;99.90;;;;;;5024882;28;20033;-54
2022/05/08 00:22:13;;;;;;;66.00;49.03;;;12.30;99.90;;;;;;5011730;28;20037;-54
2022/05/08 00:24:38;;;;;;;65.07;48.92;;;12.30;99.90;;;;;;5023892;28;20038;-58
2022/05/08 00:27:04;;;;;;;65.40;48.50;;;12.30;99.90;;;;;;5031504;28;20469;-55
2022/05/08 00:29:30;;;;;;;64.00;48.28;;;12.30;99.90;;;;;;5030304;28;20053;-58
2022/05/08 00:31:56;;;;;;;62.50;47.08;;;12.30;99.90;;;;;;5031470;28;20465;-58
2022/05/08 00:34:23;;;;;;;63.30;47.65;;;12.30;99.90;;;;;;5030301;28;20116;-55
2022/05/08 00:36:48;;;;;;;67.15;51.78;;;12.20;99.90;;;;;;5023960;28;20041;-55
2022/05/08 00:39:18;;;;;;;69.85;49.65;;;12.30;99.90;;;;;;5042547;28;20141;-58
2022/05/08 00:41:47;;;;;;;71.78;49.30;;;12.30;99.90;;;;;;5017446;28;20033;-54
2022/05/08 00:44:13;;;;;;;73.95;52.08;;;12.20;99.90;;;;;;5030332;28;20080;-57
2022/05/08 00:46:40;;;;;;;76.80;53.75;;;12.30;99.90;;;;;;5031260;28;20030;-57
2022/05/08 00:49:06;;;;;;;70.85;49.30;;;12.20;99.90;;;;;;5016915;28;20072;-56
2022/05/08 00:51:32;;;;;;;73.18;53.08;;;12.20;99.90;;;;;;5012706;28;20026;-56
2022/05/08 00:54:00;;;;;;;72.85;55.05;;;12.20;99.90;;;;;;5011862;28;20105;-58
2022/05/08 00:56:26;;;;;;;70.05;52.55;;;12.20;99.90;;;;;;5030672;28;20079;-56
2022/05/08 00:58:53;;;;;;;80.20;53.70;;;12.20;99.90;;;;;;5030492;28;20469;-56
2022/05/08 01:01:20;;;;;;;81.32;55.53;;;12.20;99.90;;;;;;5012598;28;20018;-55
2022/05/08 01:03:47;;;;;;;84.45;56.85;;;12.20;99.90;;;;;;5014908;28;20029;-58
2022/05/08 01:06:17;;;;;;;78.82;55.85;;;12.20;99.90;;;;;;5041830;28;20548;-57
2022/05/08 01:08:46;;;;;;;88.35;56.80;;;12.30;99.90;;;;;;5033846;28;20107;-56
2022/05/08 01:11:12;;;;;;;80.20;54.17;;;12.20;99.90;;;;;;5028422;28;20021;-55
2022/05/08 01:13:39;;;;;;;86.90;58.80;;;12.20;99.90;;;;;;5031025;28;20021;-58
2022/05/08 01:16:11;;;;;;;86.55;58.40;;;12.20;99.90;;;;;;5030124;28;20018;-55
2022/05/08 01:18:37;;;;;;;77.53;56.47;;;12.30;99.90;;;;;;5029606;28;20049;-55
2022/05/08 01:21:04;;;;;;;73.32;53.75;;;12.30;99.90;;;;;;5028337;28;20030;-57
2022/05/08 01:23:29;;;;;;;86.95;56.95;;;12.30;99.90;;;;;;5028819;28;20068;-57
2022/05/08 01:25:56;;;;;;;78.15;55.00;;;12.30;99.90;;;;;;5016740;28;20481;-57
2022/05/08 01:28:24;;;;;;;76.97;57.35;;;12.20;99.90;;;;;;5010409;28;20034;-57
2022/05/08 01:30:52;;;;;;;75.53;54.00;;;12.30;99.90;;;;;;5011120;28;20033;-54
2022/05/08 01:33:18;;;;;;;70.95;52.13;;;12.30;99.90;;;;;;5014376;28;20022;-55
2022/05/08 01:35:45;;;;;;;81.57;54.60;;;12.20;99.90;;;;;;5029723;28;20032;-57
2022/05/08 01:38:12;;;;;;;70.45;50.88;;;12.30;99.90;;;;;;5031944;28;20030;-54
2022/05/08 01:40:38;;;;;;;68.65;49.42;;;12.30;99.90;;;;;;5017047;28;20026;-56
2022/05/08 01:43:05;;;;;;;73.63;50.88;;;12.20;99.90;;;;;;5034401;28;20036;-55
2022/05/08 01:45:31;;;;;;;64.07;47.55;;;12.30;99.90;;;;;;5032340;28;20107;-57
2022/05/08 01:50:42;;;;;;;60.03;47.00;;;12.30;99.90;;;;;;5032537;28;20032;-57
2022/05/08 01:53:07;;;;;;;64.38;47.05;;;12.30;99.90;;;;;;5035033;28;20083;-58
2022/05/08 01:55:34;;;;;;;61.13;45.60;;;12.20;99.90;;;;;;5034654;28;20408;-55
2022/05/08 01:58:01;;;;;;;62.38;47.53;;;12.30;99.90;;;;;;5034908;28;20022;-55
2022/05/08 02:00:28;;;;;;;62.92;44.17;;;12.30;99.90;;;;;;5032315;28;20085;-58
2022/05/08 02:02:59;;;;;;;63.13;45.90;;;12.30;99.90;;;;;;5021041;28;20061;-58
2022/05/08 02:05:25;;;;;;;59.40;46.10;;;12.30;99.90;;;;;;5024304;28;20166;-62
2022/05/08 02:07:51;;;;;;;71.93;47.53;;;12.30;99.90;;;;;;5014290;28;20406;-57
2022/05/08 02:10:17;;;;;;;62.90;46.47;;;12.30;99.90;;;;;;5034314;28;20095;-59
2022/05/08 02:12:44;;;;;;;59.97;45.22;;;12.30;99.90;;;;;;5034487;28;20087;-57
2022/05/08 02:15:11;;;;;;;58.88;44.00;;;12.30;99.90;;;;;;5033483;28;20032;-57
2022/05/08 02:17:38;;;;;;;61.25;45.90;;;12.30;99.90;;;;;;5033305;28;20129;-58
2022/05/08 02:20:06;;;;;;;57.17;43.05;;;12.20;99.90;;;;;;5032098;28;20049;-57
2022/05/08 02:22:36;;;;;;;49.08;41.85;;;12.20;99.90;;;;;;5033864;28;20017;-57
2022/05/08 02:25:03;;;;;;;56.20;45.28;;;12.30;99.90;;;;;;5028860;28;20030;-58
2022/05/08 02:27:39;;;;;;;59.20;45.10;;;12.20;99.90;;;;;;5022923;28;20124;-58
2022/05/08 02:30:10;;;;;;;54.00;44.53;;;12.30;99.90;;;;;;5034168;28;20033;-56
2022/05/08 02:32:37;;;;;;;58.03;43.00;;;12.20;99.90;;;;;;5032474;28;20045;-58
2022/05/08 02:35:06;;;;;;;52.00;42.22;;;12.30;99.90;;;;;;5032524;28;20385;-57
2022/05/08 02:37:33;;;;;;;48.45;39.58;;;12.20;99.90;;;;;;5024585;28;20111;-58
2022/05/08 02:39:59;;;;;;;55.45;43.15;;;12.20;99.90;;;;;;5015284;28;20083;-58
2022/05/08 02:42:26;;;;;;;57.33;43.63;;;12.30;99.90;;;;;;5032056;28;20021;-57
2022/05/08 02:44:51;;;;;;;51.67;40.90;;;12.20;99.90;;;;;;5033418;28;20129;-57
2022/05/08 02:47:17;;;;;;;54.25;42.13;;;12.20;99.90;;;;;;5033635;28;20461;-57
2022/05/08 02:49:43;;;;;;;51.28;40.10;;;12.10;99.90;;;;;;5032360;28;20026;-57
2022/05/08 02:52:08;;;;;;;49.85;39.45;;;12.10;99.90;;;;;;5014138;28;20030;-57
2022/05/08 02:54:34;;;;;;;49.63;41.35;;;12.10;99.90;;;;;;5014764;28;20030;-58
2022/05/08 02:59:44;;;;;;;49.35;39.72;;;12.10;99.90;;;;;;5032941;28;20572;-57
2022/05/08 03:02:10;;;;;;;56.58;39.67;;;12.20;99.90;;;;;;5033674;28;20033;-57
2022/05/08 03:04:35;;;;;;;58.03;43.45;;;12.10;99.90;;;;;;5033246;28;20025;-58
2022/05/08 03:07:04;;;;;;;56.22;42.83;;;12.20;99.90;;;;;;5030173;28;20018;-58
2022/05/08 03:09:29;;;;;;;60.42;46.97;;;12.10;99.90;;;;;;5013422;28;20463;-58
2022/05/08 03:11:55;;;;;;;61.22;46.92;;;12.10;99.90;;;;;;5013755;28;20116;-55
2022/05/08 03:14:21;;;;;;;59.53;47.97;;;12.10;99.90;;;;;;5013565;28;20674;-55
2022/05/08 03:16:47;;;;;;;68.47;47.40;;;12.10;99.90;;;;;;5013336;28;20488;-55
2022/05/08 03:19:13;;;;;;;66.63;50.33;;;12.10;99.90;;;;;;5045522;28;20493;-58
2022/05/08 03:21:40;;;;;;;73.18;52.97;;;12.10;99.90;;;;;;5014483;28;20029;-55
2022/05/08 03:24:07;;;;;;;73.63;54.33;;;12.10;99.90;;;;;;5013459;28;20022;-58
2022/05/08 03:26:33;;;;;;;75.05;55.17;;;12.10;99.90;;;;;;5030039;28;20113;-57
2022/05/08 03:28:59;;;;;;;77.45;55.08;;;12.10;99.90;;;;;;5033229;28;20117;-58
2022/05/08 03:31:25;;;;;;;71.55;53.47;;;12.10;99.90;;;;;;5031168;28;20088;-57
2022/05/08 03:33:50;;;;;;;70.38;52.53;;;12.10;99.90;;;;;;5033153;28;20029;-58
2022/05/08 03:36:16;;;;;;;67.18;49.45;;;12.10;99.90;;;;;;5016190;28;20065;-57
2022/05/08 03:38:46;;;;;;;66.97;49.75;;;12.10;99.90;;;;;;5017507;28;20049;-56
2022/05/08 03:41:30;;;;;;;62.92;46.88;;;12.10;99.90;;;;;;5019454;28;20034;-57
2022/05/08 03:43:56;;;;;;;57.03;43.05;;;12.10;99.90;;;;;;5013095;28;20058;-57
2022/05/08 03:46:21;;;;;;;56.05;44.08;;;12.10;99.90;;;;;;5013048;28;20628;-58
2022/05/08 03:48:47;;;;;;;56.45;44.35;;;12.10;99.90;;;;;;5012852;28;20029;-55
2022/05/08 03:51:13;;;;;;;51.00;42.20;;;12.10;99.90;;;;;;5013019;28;20088;-58
2022/05/08 03:53:38;;;;;;;54.70;43.20;;;12.10;99.90;;;;;;5012111;28;20038;-56
2022/05/08 03:56:04;;;;;;;54.30;42.75;;;12.10;99.90;;;;;;5025606;28;20041;-57
2022/05/08 03:58:30;;;;;;;54.22;41.75;;;12.10;99.90;;;;;;5029659;28;20408;-57
2022/05/08 04:00:56;;;;;;;53.58;42.33;;;12.10;99.90;;;;;;5012713;28;20088;-58
2022/05/08 04:03:21;;;;;;;51.50;40.78;;;12.10;99.90;;;;;;5012768;28;20113;-58
2022/05/08 04:05:47;;;;;;;51.15;39.92;;;12.10;99.90;;;;;;5012560;28;20032;-58
2022/05/08 04:08:13;;;;;;;51.35;39.10;;;12.00;99.90;;;;;;5011239;28;20026;-55
2022/05/08 04:10:39;;;;;;;53.65;39.85;;;12.00;99.90;;;;;;5028937;28;20030;-56
2022/05/08 04:13:04;;;;;;;47.63;38.70;;;12.10;99.90;;;;;;5032068;28;20029;-56
2022/05/08 04:18:14;;;;;;;46.90;37.85;;;12.10;99.90;;;;;;5030565;28;20060;-57
2022/05/08 04:20:40;;;;;;;44.50;35.90;;;12.10;99.90;;;;;;5031632;28;20025;-56
2022/05/08 04:25:53;;;;;;;49.55;36.95;;;12.10;99.90;;;;;;5020839;28;20037;-55
2022/05/08 04:28:19;;;;;;;46.97;38.85;;;12.10;99.90;;;;;;5012444;28;20478;-58
2022/05/08 04:30:46;;;;;;;50.10;40.47;;;12.20;99.90;;;;;;5013176;28;20087;-55
2022/05/08 04:33:11;;;;;;;51.47;38.50;;;12.10;99.90;;;;;;5012241;28;20408;-58
2022/05/08 04:35:37;;;;;;;52.80;41.03;;;12.10;99.90;;;;;;5012200;28;20033;-57
2022/05/08 04:38:03;;;;;;;47.25;38.90;;;12.20;99.90;;;;;;5012120;28;20160;-57
2022/05/08 04:40:28;;;;;;;52.33;38.80;;;12.20;99.90;;;;;;5020502;28;20119;-56
2022/05/08 04:42:54;;;;;;;50.05;38.55;;;12.20;99.90;;;;;;5031553;28;20110;-57
2022/05/08 04:45:20;;;;;;;59.03;39.75;;;12.20;99.90;;;;;;5024774;28;20026;-57
2022/05/08 04:47:45;;;;;;;47.45;36.63;;;12.10;99.90;;;;;;5011903;28;20505;-57
2022/05/08 04:50:11;;;;;;;49.05;38.00;;;12.30;99.90;;;;;;5024359;28;20676;-56
2022/05/08 04:52:37;;;;;;;52.45;40.05;;;12.30;99.90;;;;;;5013960;28;20101;-57
2022/05/08 04:55:04;;;;;;;47.30;38.45;;;12.30;99.90;;;;;;5013574;28;20113;-57
2022/05/08 04:57:30;;;;;;;47.42;37.92;;;12.30;99.90;;;;;;5011763;28;20466;-57
2022/05/08 04:59:57;;;;;;;47.92;37.00;;;12.30;99.90;;;;;;5017145;28;20059;-59
2022/05/08 05:02:23;;;;;;;44.60;35.88;;;12.40;99.90;;;;;;5031403;28;20021;-59
2022/05/08 05:04:48;;;;;;;47.22;36.47;;;12.30;99.90;;;;;;5029706;28;20109;-58
2022/05/08 05:07:14;;;;;;;44.97;35.63;;;12.30;99.90;;;;;;5031299;28;20030;-55
2022/05/08 05:09:40;;;;;;;47.35;35.58;;;12.30;99.90;;;;;;5031050;28;20041;-56
2022/05/08 05:12:06;;;;;;;48.58;35.78;;;12.30;99.90;;;;;;5018298;28;20466;-57
2022/05/08 05:14:32;;;;;;;44.05;35.45;;;12.30;99.90;;;;;;5011618;28;20021;-59
2022/05/08 05:17:00;;;;;;;43.15;34.90;;;12.30;99.90;;;;;;5011620;28;20054;-56
2022/05/08 05:19:26;;;;;;;43.75;34.58;;;12.40;99.90;;;;;;5012456;28;20073;-56
2022/05/08 05:21:52;;;;;;;38.58;33.60;;;12.40;99.90;;;;;;5011859;28;20489;-56
2022/05/08 05:24:17;;;;;;;42.72;34.33;;;12.40;99.90;;;;;;5011739;28;20064;-55
2022/05/08 05:26:43;;;;;;;46.33;34.45;;;12.40;99.90;;;;;;5028892;28;20045;-54
2022/05/08 05:29:09;;;;;;;41.63;31.80;;;12.40;99.90;;;;;;5030993;28;20424;-58
2022/05/08 05:31:34;;;;;;;36.17;30.15;;;12.40;99.90;;;;;;5029720;28;20044;-58
2022/05/08 05:34:00;;;;;;;35.38;28.73;;;12.60;99.90;;;;;;5031191;28;20032;-58
2022/05/08 05:36:26;;;;;;;36.25;28.85;;;12.70;99.90;;;;;;5030904;28;20036;-54
2022/05/08 05:38:51;;;;;;;32.60;27.95;;;12.60;99.90;;;;;;5030862;28;20025;-59
2022/05/08 05:41:17;;;;;;;28.13;25.05;;;12.70;99.90;;;;;;5022346;28;20133;-55
2022/05/08 05:43:43;;;;;;;27.52;24.48;;;12.60;99.90;;;;;;5018753;28;20057;-57
2022/05/08 05:48:52;;;;;;;30.27;25.75;;;12.70;99.90;;;;;;5031068;28;20506;-54
2022/05/08 05:51:18;;;;;;;29.25;25.90;;;12.70;99.90;;;;;;5029423;28;20029;-57
2022/05/08 05:53:43;;;;;;;32.60;26.83;;;12.80;99.90;;;;;;5030737;28;20037;-57
2022/05/08 05:56:09;;;;;;;33.22;27.70;;;12.80;99.90;;;;;;5017955;28;20476;-57
2022/05/08 05:58:35;;;;;;;33.03;26.52;;;12.90;99.90;;;;;;5011155;28;20022;-57
2022/05/08 06:01:01;;;;;;;36.58;24.90;;;12.90;99.90;;;;;;5021069;28;20033;-58
2022/05/08 06:03:27;;;;;;;33.08;25.20;;;13.10;99.90;;;;;;5030606;28;20116;-57
2022/05/08 06:05:53;;;;;;;30.20;25.70;;;13.10;99.90;;;;;;5020430;28;20030;-58
2022/05/08 06:08:18;;;;;;;28.73;23.17;;;13.20;99.90;;;;;;5023485;28;20110;-58
2022/05/08 06:10:44;;;;;;;26.35;23.45;;;13.30;99.90;;;;;;5030161;28;20032;-58
2022/05/08 06:13:10;;;;;;;26.00;22.67;;;13.40;99.90;;;;;;5029053;28;20029;-58
2022/05/08 06:15:35;;;;;;;23.65;21.17;;;13.60;99.90;;;;;;5010710;28;20590;-58
2022/05/08 06:18:01;;;;;;;27.05;22.58;;;13.60;99.90;;;;;;5012762;28;20042;-58
2022/05/08 06:20:27;;;;;;;28.38;22.00;;;13.70;99.90;;;;;;5014985;28;20026;-58
2022/05/08 06:22:54;;;;;;;27.75;21.85;;;13.60;99.90;;;;;;5014433;28;20036;-57
2022/05/08 06:25:20;;;;;;;25.92;21.33;;;13.60;99.90;;;;;;5020187;28;20035;-56
2022/05/08 06:27:45;;;;;;;21.80;19.55;;;13.70;99.90;;;;;;5033474;28;20114;-59
2022/05/08 06:30:12;;;;;;;23.63;20.05;;;13.70;99.90;;;;;;5031841;28;20025;-58
2022/05/08 06:32:37;;;;;;;21.55;19.25;;;13.80;99.90;;;;;;5032728;28;20029;-55
2022/05/08 06:35:03;;;;;;;21.90;18.92;;;13.70;99.90;;;;;;5033611;28;20028;-54
2022/05/08 06:37:29;;;;;;;22.83;20.42;;;13.70;99.90;;;;;;5032180;28;20121;-55
2022/05/08 06:39:55;;;;;;;24.00;20.83;;;13.60;99.90;;;;;;5031185;28;20033;-57
2022/05/08 06:42:20;;;;;;;23.67;19.15;;;13.80;99.90;;;;;;5014431;28;20021;-57
2022/05/08 06:44:46;;;;;;;21.10;18.27;;;13.80;99.90;;;;;;5013981;28;20030;-58
2022/05/08 06:47:12;;;;;;;23.38;20.27;;;13.70;99.90;;;;;;5025292;28;20029;-56
2022/05/08 06:49:37;;;;;;;24.02;18.92;;;13.80;99.90;;;;;;5029726;28;20081;-59
2022/05/08 06:52:03;;;;;;;21.67;18.90;;;13.70;99.90;;;;;;5014077;28;20442;-53
2022/05/08 06:54:29;;;;;;;22.38;19.98;;;13.80;99.90;;;;;;5029861;28;20033;-58
2022/05/08 06:56:56;;;;;;;22.60;19.38;;;13.80;99.90;;;;;;5014833;28;20041;-55
2022/05/08 07:02:07;;;;;;;21.77;19.17;;;13.80;99.90;;;;;;5015178;28;20497;-57
2022/05/08 07:04:33;;;;;;;22.23;19.83;;;13.90;99.90;;;;;;5013721;28;20129;-59
2022/05/08 07:06:59;;;;;;;23.98;19.17;;;14.00;99.90;;;;;;5018639;28;20034;-57
2022/05/08 07:09:24;;;;;;;23.15;18.50;;;14.00;99.90;;;;;;5034179;28;20035;-58
2022/05/08 07:11:50;;;;;;;20.42;16.52;;;14.20;99.90;;;;;;5053194;28;20091;-57
2022/05/08 07:14:16;;;;;;;20.60;18.23;;;14.30;99.90;;;;;;5048728;28;20029;-57
2022/05/08 07:16:43;;;;;;;19.33;17.33;;;14.40;99.90;;;;;;5052628;28;20066;-56
2022/05/08 07:19:09;;;;;;;19.77;17.88;;;14.50;99.90;;;;;;5052669;28;20044;-57
2022/05/08 07:21:35;;;;;;;21.35;17.50;;;14.60;99.90;;;;;;5052943;28;20062;-59
2022/05/08 07:24:01;;;;;;;20.80;18.60;;;14.60;99.90;;;;;;5053072;28;20024;-59
2022/05/08 07:26:27;;;;;;;22.88;17.98;;;14.70;99.90;;;;;;5052898;28;20021;-58
2022/05/08 07:28:53;;;;;;;24.52;18.75;;;14.90;99.90;;;;;;5052020;28;20029;-58
2022/05/08 07:31:18;;;;;;;21.60;17.15;;;14.90;99.90;;;;;;5052702;28;20024;-59
2022/05/08 07:33:44;;;;;;;23.02;17.85;;;15.10;99.90;;;;;;5052634;28;20024;-54
2022/05/08 07:36:13;;;;;;;22.65;17.88;;;15.00;99.90;;;;;;5052885;28;20472;-57
2022/05/08 07:38:47;;;;;;;17.65;15.82;;;15.10;99.90;;;;;;5052652;28;20094;-58
2022/05/08 07:41:17;;;;;;;22.02;18.42;;;15.00;99.90;;;;;;5051947;28;20594;-57
2022/05/08 07:43:46;;;;;;;27.25;18.52;;;15.20;99.90;;;;;;5051426;28;20036;-57
2022/05/08 07:46:14;;;;;;;21.75;18.15;;;15.10;99.90;;;;;;5049930;28;20021;-56
2022/05/08 07:48:40;;;;;;;22.23;18.48;;;15.20;99.90;;;;;;5030053;28;20715;-56
2022/05/08 07:51:05;;;;;;;21.30;18.42;;;15.20;99.90;;;;;;5031686;28;20191;-55
2022/05/08 07:53:33;;;;;;;20.80;18.42;;;15.10;99.90;;;;;;5032026;28;20067;-55
2022/05/08 07:55:59;;;;;;;28.27;19.65;;;15.40;99.90;;;;;;5031577;28;20032;-58
2022/05/08 07:58:32;;;;;;;23.80;18.08;;;15.60;99.90;;;;;;5031524;28;20029;-58
2022/05/08 08:00:59;;;;;;;21.67;18.38;;;15.50;99.90;;;;;;5032060;28;20029;-56
2022/05/08 08:03:27;;;;;;;21.90;17.23;;;15.40;99.90;;;;;;5051844;28;20037;-56
2022/05/08 08:05:54;;;;;;;16.50;14.80;;;15.50;99.90;;;;;;5052105;28;20376;-57
2022/05/08 08:08:23;;;;;;;19.27;16.65;;;15.50;99.90;;;;;;5052097;28;20025;-58
2022/05/08 08:10:53;;;;;;;18.35;15.93;;;15.50;99.90;;;;;;5052090;28;20017;-57
2022/05/08 08:13:23;;;;;;;19.10;14.88;;;15.70;99.90;;;;;;5051935;28;20055;-58
2022/05/08 08:15:49;;;;;;;16.55;14.68;;;15.70;99.90;;;;;;5052084;28;20036;-55
2022/05/08 08:18:15;;;;;;;17.52;14.15;;;15.80;99.90;;;;;;5051803;28;20040;-55
2022/05/08 08:20:42;;;;;;;18.17;14.20;;;15.90;99.90;;;;;;5013243;28;20433;-54
2022/05/08 08:23:09;;;;;;;21.90;15.73;;;15.90;99.90;;;;;;5012273;28;20032;-57
2022/05/08 08:25:35;;;;;;;18.45;15.57;;;15.80;99.90;;;;;;5012062;28;20026;-58
2022/05/08 08:28:01;;;;;;;18.75;16.80;;;15.60;99.90;;;;;;5012015;28;20080;-58
2022/05/08 08:30:27;;;;;;;19.95;17.55;;;15.60;99.90;;;;;;5012054;28;20026;-57
2022/05/08 08:32:53;;;;;;;20.00;15.95;;;15.40;99.90;;;;;;5016328;28;20386;-55
2022/05/08 08:35:19;;;;;;;18.73;16.33;;;15.40;99.90;;;;;;5051055;28;20086;-57
2022/05/08 08:37:44;;;;;;;21.52;17.85;;;15.40;99.90;;;;;;5044035;28;20064;-57
2022/05/08 08:40:11;;;;;;;20.05;18.00;;;15.40;99.90;;;;;;5022698;28;20489;-57
2022/05/08 08:42:41;;;;;;;20.30;18.17;;;15.40;99.90;;;;;;5011467;28;20029;-54
2022/05/08 08:47:52;;;;;;;19.25;17.20;;;15.40;99.90;;;;;;5012169;28;20121;-56
2022/05/08 08:50:19;;;;;;;37.47;29.00;;;15.60;99.90;;;;;;5012731;28;20030;-58
2022/05/08 08:52:49;;;;;;;21.27;17.77;;;15.60;99.90;;;;;;5011619;28;20101;-58
2022/05/08 08:55:17;;;;;;;22.05;18.38;;;15.40;99.90;;;;;;5011923;28;20021;-58
2022/05/08 08:57:45;;;;;;;19.70;17.60;;;15.30;99.90;;;;;;5011470;28;20044;-57
2022/05/08 09:00:12;;;;;;;18.02;16.23;;;15.20;99.90;;;;;;5011750;28;20104;-57
2022/05/08 09:02:39;;;;;;;19.45;17.45;;;15.30;99.90;;;;;;5011568;28;20083;-57
2022/05/08 09:05:17;;;;;;;22.15;16.98;;;15.40;99.90;;;;;;5012538;28;20026;-56
2022/05/08 09:07:43;;;;;;;17.38;14.77;;;15.50;99.90;;;;;;5031255;28;20080;-55
2022/05/08 09:10:16;;;;;;;19.13;16.90;;;15.60;99.90;;;;;;5031397;28;20057;-57
2022/05/08 09:13:04;;;;;;;18.27;15.43;;;15.60;99.90;;;;;;5031428;28;20731;-57
2022/05/08 09:15:30;;;;;;;17.17;14.60;;;15.60;99.90;;;;;;5030929;28;20092;-57
2022/05/08 09:18:01;;;;;;;16.67;14.27;;;16.00;99.90;;;;;;5031362;28;20095;-57
2022/05/08 09:20:46;;;;;;;16.58;14.88;;;16.10;99.90;;;;;;5024899;28;20113;-57
2022/05/08 09:23:16;;;;;;;13.98;12.52;;;16.20;99.90;;;;;;5011452;28;20046;-58
2022/05/08 09:25:52;;;;;;;15.02;12.68;;;16.50;99.90;;;;;;5011413;28;20029;-55
2022/05/08 09:28:19;;;;;;;26.05;14.27;;;16.30;99.90;;;;;;5011318;28;20038;-57
2022/05/08 09:30:54;;;;;;;19.48;14.85;;;16.40;99.90;;;;;;5011339;28;20034;-58
2022/05/08 09:33:32;;;;;;;13.43;11.25;;;16.70;99.90;;;;;;5011567;28;20022;-56
2022/05/08 09:36:00;;;;;;;12.50;11.18;;;16.80;99.90;;;;;;5011541;28;20044;-56
2022/05/08 09:39:02;;;;;;;14.60;13.13;;;16.60;99.90;;;;;;5011536;28;20088;-59
2022/05/08 09:41:30;;;;;;;12.68;10.52;;;16.70;99.90;;;;;;5010441;28;20071;-56
2022/05/08 09:44:08;;;;;;;14.38;12.02;;;16.40;99.90;;;;;;5010821;28;20030;-57
2022/05/08 09:46:52;;;;;;;14.18;12.05;;;16.50;99.90;;;;;;5011318;28;20079;-56
2022/05/08 09:49:19;;;;;;;18.88;10.38;;;16.60;99.90;;;;;;5011834;28;20105;-55
2022/05/08 09:51:46;;;;;;;15.85;10.85;;;16.30;99.90;;;;;;5031288;28;20033;-56
2022/05/08 09:54:13;;;;;;;14.55;11.90;;;16.30;99.90;;;;;;5034554;28;20048;-58
2022/05/08 09:56:39;;;;;;;19.52;11.68;;;16.30;99.90;;;;;;5026693;28;20424;-56
2022/05/08 09:59:08;;;;;;;16.92;12.18;;;16.20;99.90;;;;;;5034740;28;20040;-57
2022/05/08 10:01:34;;;;;;;16.65;13.05;;;16.00;99.90;;;;;;5037688;28;20017;-57
2022/05/08 10:04:00;;;;;;;18.35;12.38;;;15.90;99.90;;;;;;5054615;28;20123;-58
2022/05/08 10:06:30;;;;;;;15.88;12.55;;;16.00;99.90;;;;;;5054322;28;20519;-58
2022/05/08 10:13:53;;;;;;;16.33;12.63;;;16.00;99.90;;;;;;5054427;28;20017;-56
2022/05/08 10:14:30;;;;;;;12.57;11.27;;;16.40;99.90;;;;;;5042020;28;20036;-56
2022/05/08 10:17:04;;;;;;;18.48;12.35;;;16.50;99.90;;;;;;5023852;28;20099;-57
2022/05/08 10:19:29;;;;;;;17.52;11.73;;;16.70;99.90;;;;;;5022327;28;20029;-58
2022/05/08 10:22:10;;;;;;;14.57;11.85;;;16.90;99.90;;;;;;5022099;28;20358;-57
2022/05/08 10:24:41;;;;;;;12.60;11.30;;;16.90;99.90;;;;;;5022194;28;20025;-58
2022/05/08 10:27:21;;;;;;;12.48;10.63;;;17.10;99.90;;;;;;5021118;28;20029;-58
2022/05/08 10:29:50;;;;;;;12.82;10.25;;;17.20;99.90;;;;;;5021301;28;20157;-56
2022/05/08 10:32:35;;;;;;;12.48;10.68;;;17.50;99.90;;;;;;5023402;28;20026;-58
2022/05/08 10:35:21;;;;;;;21.75;11.48;;;17.80;99.90;;;;;;5022868;28;20087;-56
2022/05/08 10:37:51;;;;;;;14.02;10.35;;;18.00;99.90;;;;;;5022247;28;20037;-56
2022/05/08 10:40:23;;;;;;;11.32;10.15;;;18.70;99.90;;;;;;5022847;28;20033;-57
2022/05/08 10:42:50;;;;;;;11.88;9.65;;;19.00;99.90;;;;;;5022292;28;20083;-57
2022/05/08 10:45:30;;;;;;;12.32;10.35;;;18.80;99.90;;;;;;5024415;28;20037;-58
2022/05/08 10:48:12;;;;;;;15.32;11.30;;;18.80;99.90;;;;;;5023584;28;20396;-58
2022/05/08 10:50:44;;;;;;;13.82;10.90;;;19.00;99.90;;;;;;5023218;28;20354;-57
2022/05/08 10:53:36;;;;;;;12.73;9.73;;;19.20;99.90;;;;;;5023080;28;20116;-58
2022/05/08 10:56:09;;;;;;;13.40;10.63;;;19.40;99.90;;;;;;5023119;28;20950;-55
2022/05/08 10:58:41;;;;;;;16.00;10.20;;;19.30;99.90;;;;;;5021891;28;20442;-59
2022/05/08 11:01:09;;;;;;;13.57;10.00;;;19.30;99.90;;;;;;5023460;28;20071;-57
2022/05/08 11:03:35;;;;;;;11.77;10.63;;;18.90;99.90;;;;;;5022189;28;20029;-57
2022/05/08 11:06:02;;;;;;;16.33;10.50;;;18.80;99.90;;;;;;5023174;28;20107;-56
2022/05/08 11:08:31;;;;;;;12.25;10.93;;;18.70;99.90;;;;;;5022974;28;20176;-58
2022/05/08 11:11:02;;;;;;;13.27;10.57;;;18.70;99.90;;;;;;5022106;28;20036;-57
2022/05/08 11:13:49;;;;;;;13.32;10.50;;;18.40;99.90;;;;;;5022637;28;20030;-57
2022/05/08 11:16:33;;;;;;;15.80;11.35;;;18.30;99.90;;;;;;5021790;28;20037;-57
2022/05/08 11:19:00;;;;;;;13.40;12.00;;;18.00;99.90;;;;;;5022491;28;20056;-58
2022/05/08 11:21:26;;;;;;;14.45;11.70;;;17.90;99.90;;;;;;5022564;28;20044;-57
2022/05/08 11:23:54;;;;;;;14.15;12.18;;;17.60;99.90;;;;;;5021901;28;20117;-59
2022/05/08 11:26:27;;;;;;;14.68;10.95;;;17.40;99.90;;;;;;5022282;28;20083;-57
2022/05/08 11:28:55;;;;;;;19.20;11.65;;;17.30;99.90;;;;;;5021870;28;20037;-55
2022/05/08 11:31:23;;;;;;;13.85;11.57;;;17.50;99.90;;;;;;5022285;28;20060;-57
2022/05/08 11:36:40;;;;;;;25.00;12.18;;;17.40;99.90;;;;;;5021704;28;20652;-57
2022/05/08 11:39:11;;;;;;;17.93;12.80;;;17.60;99.90;;;;;;5022411;28;20599;-58
2022/05/08 11:41:37;;;;;;;20.58;13.02;;;17.50;99.90;;;;;;5022111;28;20029;-57
2022/05/08 11:44:15;;;;;;;13.65;11.13;;;17.60;99.90;;;;;;5020380;28;20040;-58
2022/05/08 11:46:55;;;;;;;10.38;8.98;;;18.10;99.90;;;;;;5022408;28;20548;-58
2022/05/08 11:49:27;;;;;;;12.45;11.20;;;18.50;99.90;;;;;;5021142;28;20018;-57
2022/05/08 11:51:57;;;;;;;11.48;10.27;;;19.00;99.90;;;;;;5021536;28;20423;-58
2022/05/08 11:54:29;;;;;;;13.98;10.93;;;18.60;99.90;;;;;;5020145;28;20033;-58
2022/05/08 11:57:14;;;;;;;12.45;9.40;;;18.50;99.90;;;;;;5019828;28;20132;-54
2022/05/08 11:59:43;;;;;;;10.35;9.25;;;18.80;99.90;;;;;;5021581;28;20025;-57
2022/05/08 12:02:09;;;;;;;10.35;9.27;;;19.60;99.90;;;;;;5022266;28;20026;-57
2022/05/08 12:04:35;;;;;;;10.23;8.75;;;20.20;99.90;;;;;;5003388;28;20087;-58
2022/05/08 12:07:13;;;;;;;10.38;9.13;;;20.70;99.90;;;;;;5021763;28;20021;-58
2022/05/08 12:09:41;;;;;;;9.10;8.18;;;21.20;99.90;;;;;;5020811;28;20113;-57
2022/05/08 12:12:35;;;;;;;9.68;7.75;;;21.60;99.00;;;;;;5021473;28;20037;-58
2022/05/08 12:15:03;;;;;;;8.75;7.35;;;22.10;99.70;;;;;;5020972;28;20029;-59
2022/05/08 12:17:30;;;;;;;9.57;7.45;;;22.70;96.70;;;;;;5020243;28;20397;-58
2022/05/08 12:20:00;;;;;;;7.22;6.25;;;22.90;94.00;;;;;;5020321;28;20049;-58
2022/05/08 12:22:28;;;;;;;9.98;6.45;;;23.30;95.00;;;;;;5021224;28;20029;-58
2022/05/08 12:24:55;;;;;;;9.73;6.10;;;23.70;93.80;;;;;;5020623;28;20043;-59
2022/05/08 12:27:21;;;;;;;6.90;6.30;;;23.70;93.10;;;;;;5021355;28;20026;-56
2022/05/08 12:29:48;;;;;;;10.80;6.45;;;24.00;91.80;;;;;;5020183;28;20056;-56
2022/05/08 12:32:16;;;;;;;13.50;6.80;;;24.10;89.20;;;;;;5021345;28;20041;-57
2022/05/08 12:34:43;;;;;;;11.30;6.35;;;23.90;91.80;;;;;;5020536;28;20120;-57
2022/05/08 12:37:14;;;;;;;7.88;7.07;;;24.10;92.30;;;;;;5018634;28;20026;-57
2022/05/08 12:39:40;;;;;;;8.60;7.40;;;24.00;91.60;;;;;;5020083;28;20041;-56
2022/05/08 12:42:07;;;;;;;7.78;6.13;;;23.90;90.20;;;;;;5020845;28;20030;-56
2022/05/08 12:44:38;;;;;;;6.93;6.05;;;24.00;90.90;;;;;;5021744;28;20029;-55
2022/05/08 12:47:09;;;;;;;8.40;6.30;;;24.10;90.70;;;;;;5021344;28;20034;-57
2022/05/08 12:49:36;;;;;;;7.57;6.80;;;24.40;88.70;;;;;;5020764;28;20083;-56
2022/05/08 12:52:03;;;;;;;11.20;6.43;;;23.70;89.80;;;;;;5019987;28;20083;-56
2022/05/08 12:54:29;;;;;;;8.52;7.10;;;23.10;90.60;;;;;;5019590;28;20045;-57
2022/05/08 12:56:55;;;;;;;13.82;7.20;;;22.50;92.00;;;;;;5019993;28;20017;-57